Time;durP1;ratioP1;P1;durP2;ratioP2;P2;SDS_P1;SDS_P2;PMS_P1;PMS_P2;Temp;Humidity;BMP_temperature;BMP_pressure;BME280_temperature;BME280_humidity;BME280_pressure;Samples;Min_cycle;Max_cycle;Signal;HPM_P1;HPM_P2
2022/08/03 00:00:40;;;;;;;;;7.00;4.50;;;;;24.75;100.00;101183.81;6198097;22;45255;-93
2022/08/03 00:03:05;;;;;;;;;6.80;4.60;;;;;24.71;100.00;101178.91;6230812;22;45125;-91
2022/08/03 00:05:34;;;;;;;;;6.25;5.00;;;;;24.65;100.00;101188.66;6178801;22;44567;-93
2022/08/03 00:08:00;;;;;;;;;7.00;5.00;;;;;24.63;100.00;101185.28;6175891;22;44608;-93
2022/08/03 00:10:26;;;;;;;;;5.80;4.20;;;;;24.61;100.00;101184.63;6175408;22;44844;-93
2022/08/03 00:12:53;;;;;;;;;4.75;4.75;;;;;24.58;100.00;101174.97;6223958;22;46666;-92
2022/08/03 00:15:18;;;;;;;;;4.20;2.60;;;;;24.56;100.00;101177.03;6228463;22;44706;-94
2022/08/03 00:17:44;;;;;;;;;3.75;3.75;;;;;24.60;100.00;101185.66;6228732;22;44706;-93
2022/08/03 00:20:11;;;;;;;;;6.00;4.00;;;;;24.55;100.00;101180.75;6229903;22;44838;-93
2022/08/03 00:22:36;;;;;;;;;7.80;4.00;;;;;24.52;100.00;101183.03;6230777;22;46709;-93
2022/08/03 00:25:03;;;;;;;;;9.00;5.00;;;;;24.49;100.00;101192.38;6235209;22;44735;-93
2022/08/03 00:27:28;;;;;;;;;5.60;4.40;;;;;24.49;100.00;101194.25;6201311;22;44594;-94
2022/08/03 00:29:54;;;;;;;;;6.25;5.25;;;;;24.40;100.00;101188.03;6232540;22;44881;-93
2022/08/03 00:32:45;;;;;;;;;5.00;5.00;;;;;24.40;100.00;101188.03;6219456;22;44964;-94
2022/08/03 00:35:18;;;;;;;;;6.00;4.20;;;;;24.41;100.00;101186.16;6192440;22;44602;-93
2022/08/03 00:37:43;;;;;;;;;5.40;4.00;;;;;24.40;100.00;101184.47;6217035;22;44681;-92
2022/08/03 00:40:14;;;;;;;;;11.20;5.00;;;;;24.31;100.00;101180.94;6218992;22;44844;-93
2022/08/03 00:42:55;;;;;;;;;4.80;4.80;;;;;24.35;100.00;101190.41;6216624;22;45260;-93
2022/08/03 00:45:25;;;;;;;;;6.40;3.40;;;;;24.27;100.00;101185.91;6217242;22;44602;-94
2022/08/03 00:47:51;;;;;;;;;5.00;5.00;;;;;24.24;100.00;101191.69;6219474;22;44900;-94
2022/08/03 00:50:21;;;;;;;;;3.20;3.20;;;;;24.21;100.00;101186.59;6221247;22;44773;-93
2022/08/03 00:52:49;;;;;;;;;6.20;3.00;;;;;24.13;100.00;101186.69;6219781;22;45189;-93
2022/08/03 00:55:15;;;;;;;;;3.40;3.40;;;;;24.11;100.00;101176.00;6222871;22;44593;-93
2022/08/03 00:57:42;;;;;;;;;4.00;4.00;;;;;24.07;100.00;101179.25;6202682;22;44796;-93
2022/08/03 01:00:10;;;;;;;;;3.40;3.00;;;;;23.99;100.00;101172.03;6217248;22;44922;-90
2022/08/03 01:02:38;;;;;;;;;2.60;2.60;;;;;23.98;100.00;101178.47;6220756;22;45600;-91
2022/08/03 01:05:04;;;;;;;;;3.00;3.00;;;;;23.98;100.00;101186.63;6223908;22;44562;-92
2022/08/03 01:07:42;;;;;;;;;6.00;4.60;;;;;23.91;100.00;101169.34;6231902;22;44585;-93
2022/08/03 01:10:19;;;;;;;;;2.40;2.40;;;;;23.90;100.00;101170.38;6230217;22;44992;-93
2022/08/03 01:13:09;;;;;;;;;3.00;1.60;;;;;23.82;100.00;101171.25;6227585;22;45000;-93
2022/08/03 01:15:47;;;;;;;;;4.80;3.80;;;;;23.79;100.00;101168.09;6201288;22;44641;-93
2022/08/03 01:19:10;;;;;;;;;;;;;;;;;;;;;
2022/08/03 01:22:08;;;;;;;;;5.00;3.00;;;;;23.71;100.00;101166.25;6166286;23;44781;-93
2022/08/03 01:25:16;;;;;;;;;3.00;2.20;;;;;23.69;100.00;101162.88;6137207;23;45160;-93
2022/08/03 01:28:10;;;;;;;;;3.00;3.00;;;;;23.66;100.00;101159.66;6116221;23;44793;-94
2022/08/03 01:33:49;;;;;;;;;3.00;3.00;;;;;23.61;100.00;101152.03;6229435;22;45692;-94
2022/08/03 01:36:52;;;;;;;;;5.40;3.00;;;;;23.49;100.00;101156.16;6214589;22;45070;-94
2022/08/03 01:39:36;;;;;;;;;4.40;1.60;;;;;23.49;100.00;101148.84;6239548;22;44941;-93
2022/08/03 01:45:38;;;;;;;;;3.40;3.00;;;;;23.45;100.00;101150.25;6199027;23;44553;-95
2022/08/03 01:48:14;;;;;;;;;3.40;2.00;;;;;23.42;100.00;101150.59;6178655;23;45176;-94
2022/08/03 01:50:56;;;;;;;;;2.00;2.00;;;;;23.37;100.00;101144.84;6205310;23;44789;-94
2022/08/03 01:53:31;;;;;;;;;3.40;2.20;;;;;23.36;100.00;101145.03;6206815;23;44542;-95
2022/08/03 01:56:04;;;;;;;;;1.80;1.80;;;;;23.32;100.00;101148.09;6180652;23;44877;-94
2022/08/03 01:58:39;;;;;;;;;1.20;1.20;;;;;23.28;100.00;101137.78;6178701;23;46763;-94
2022/08/03 02:01:14;;;;;;;;;1.80;1.80;;;;;23.26;100.00;101142.53;6196293;23;44727;-93
2022/08/03 02:03:47;;;;;;;;;1.00;1.00;;;;;23.23;100.00;101143.72;6169348;23;44615;-95
2022/08/03 02:06:27;;;;;;;;;4.20;3.20;;;;;23.21;100.00;101151.19;6201706;23;44834;-95
2022/08/03 02:09:06;;;;;;;;;3.60;2.60;;;;;23.09;100.00;101139.03;6181964;23;45204;-94
2022/08/03 02:11:38;;;;;;;;;3.80;2.00;;;;;23.06;100.00;101133.94;6179491;23;44733;-95
2022/08/03 02:14:11;;;;;;;;;2.80;2.00;;;;;23.08;100.00;101138.19;6176687;23;44794;-95
2022/08/03 02:16:52;;;;;;;;;3.00;3.00;;;;;23.08;100.00;101137.34;6174530;23;44822;-95
2022/08/03 02:19:38;;;;;;;;;4.20;3.00;;;;;23.06;100.00;101142.06;6200335;23;45135;-94
2022/08/03 02:22:12;;;;;;;;;3.60;2.60;;;;;22.98;100.00;101129.41;6172660;23;44613;-94
2022/08/03 02:25:04;;;;;;;;;5.40;2.80;;;;;22.98;100.00;101134.84;6204337;23;44590;-94
2022/08/03 02:30:23;;;;;;;;;3.60;3.00;;;;;22.98;100.00;101124.00;6225725;22;46748;-96
2022/08/03 02:38:04;;;;;;;;;2.00;2.00;;;;;22.91;100.00;101124.84;6236733;22;44886;-92
2022/08/03 02:40:32;;;;;;;;;1.00;1.00;;;;;22.90;100.00;101118.59;6211566;22;45071;-93
2022/08/03 02:43:12;;;;;;;;;4.00;2.00;;;;;22.89;100.00;101124.19;6198000;22;44792;-94
2022/08/03 02:45:43;;;;;;;;;3.40;1.40;;;;;22.90;100.00;101125.88;6193633;22;44634;-93
2022/08/03 02:48:15;;;;;;;;;2.00;2.00;;;;;22.88;100.00;101123.31;6201932;22;44817;-94
2022/08/03 02:50:43;;;;;;;;;1.00;1.00;;;;;22.88;100.00;101117.06;6201174;22;45126;-94
2022/08/03 02:53:10;;;;;;;;;4.00;3.00;;;;;22.84;100.00;101120.09;6213195;22;44647;-93
2022/08/03 02:55:38;;;;;;;;;1.00;1.00;;;;;22.86;100.00;101122.63;6241605;22;44624;-93
2022/08/03 02:58:05;;;;;;;;;0.20;0.20;;;;;22.84;100.00;101119.25;6209575;22;44894;-93
2022/08/03 03:00:33;;;;;;;;;2.00;2.00;;;;;22.83;100.00;101120.28;6228680;22;44946;-93
2022/08/03 03:03:01;;;;;;;;;1.60;1.60;;;;;22.84;100.00;101116.56;6197083;22;44720;-93
2022/08/03 03:05:29;;;;;;;;;2.80;1.00;;;;;22.79;100.00;101117.06;6195892;22;44664;-93
2022/08/03 03:07:56;;;;;;;;;2.40;2.00;;;;;22.77;100.00;101112.81;6201522;22;44919;-93
2022/08/03 03:14:13;;;;;;;;;3.00;2.00;;;;;22.77;100.00;101112.81;6231603;22;44504;-95
2022/08/03 03:16:43;;;;;;;;;1.20;1.00;;;;;22.75;100.00;101110.31;6204203;22;44661;-94
2022/08/03 03:19:18;;;;;;;;;2.40;1.80;;;;;22.73;100.00;101114.22;6208275;22;44863;-94
2022/08/03 03:21:51;;;;;;;;;1.60;1.60;;;;;22.71;100.00;101114.38;6209360;22;45237;-94
2022/08/03 03:27:43;;;;;;;;;2.00;1.00;;;;;22.66;100.00;101097.78;6233699;22;44594;-94
2022/08/03 03:33:34;;;;;;;;;3.00;3.00;;;;;22.63;100.00;101111.69;6234024;22;44932;-95
2022/08/03 03:36:17;;;;;;;;;2.00;2.00;;;;;22.61;100.00;101099.34;6212358;22;44705;-95
2022/08/03 03:38:53;;;;;;;;;1.20;1.20;;;;;22.58;100.00;101098.66;6239474;22;44703;-95
2022/08/03 03:41:25;;;;;;;;;1.60;1.40;;;;;22.58;100.00;101101.38;6208489;22;44841;-94
2022/08/03 03:44:31;;;;;;;;;3.00;1.00;;;;;22.57;100.00;101098.81;6204719;22;45162;-94
2022/08/03 03:47:00;;;;;;;;;1.60;1.00;;;;;22.59;100.00;101102.22;6201596;22;44813;-95
2022/08/03 03:49:41;;;;;;;;;1.60;1.60;;;;;22.57;100.00;101099.66;6207960;22;44675;-94
2022/08/03 03:55:49;;;;;;;;;1.40;1.40;;;;;22.54;100.00;101104.59;6234091;22;44839;-95
2022/08/03 03:58:42;;;;;;;;;3.20;0.80;;;;;22.54;100.00;101104.59;6230315;22;44520;-95
2022/08/03 04:01:17;;;;;;;;;2.00;2.00;;;;;22.53;100.00;101105.59;6209405;22;44716;-95
2022/08/03 04:03:49;;;;;;;;;3.20;1.80;;;;;22.49;100.00;101101.56;6209647;22;44753;-95
2022/08/03 04:15:27;;;;;;;;;2.00;2.00;;;;;22.42;100.00;101098.69;6237285;22;44536;-93
2022/08/03 04:18:03;;;;;;;;;2.40;1.60;;;;;22.38;100.00;101101.91;6230945;22;45181;-94
2022/08/03 04:20:45;;;;;;;;;1.60;1.60;;;;;22.39;100.00;101111.72;6212313;22;44842;-93
2022/08/03 04:23:18;;;;;;;;;3.40;2.00;;;;;22.35;100.00;101116.63;6210515;22;44663;-94
2022/08/03 04:25:52;;;;;;;;;1.00;1.00;;;;;22.35;100.00;101107.66;6166163;22;44799;-94
2022/08/03 04:28:21;;;;;;;;;3.60;1.80;;;;;22.36;100.00;101101.22;6204287;22;45136;-93
2022/08/03 04:30:51;;;;;;;;;6.00;2.60;;;;;22.34;100.00;101101.41;6225847;22;44627;-94
2022/08/03 04:33:18;;;;;;;;;2.40;1.40;;;;;22.36;100.00;101107.50;6193240;22;44590;-94
2022/08/03 04:35:46;;;;;;;;;2.60;2.60;;;;;22.35;100.00;101107.66;6194623;22;44916;-93
2022/08/03 04:38:20;;;;;;;;;3.20;1.80;;;;;22.33;100.00;101097.00;6217614;22;45423;-95
2022/08/03 04:41:05;;;;;;;;;2.20;2.20;;;;;22.46;100.00;101104.59;6233645;22;44709;-94
2022/08/03 04:43:33;;;;;;;;;3.20;2.00;;;;;22.52;100.00;101101.19;6231194;22;44758;-91
2022/08/03 04:46:01;;;;;;;;;2.80;2.00;;;;;22.54;100.00;101094.63;6229977;22;44824;-95
2022/08/03 04:48:42;;;;;;;;;3.40;3.00;;;;;22.70;100.00;101101.84;6235590;22;45088;-95
2022/08/03 04:51:14;;;;;;;;;3.40;1.60;;;;;22.78;100.00;101104.56;6241543;22;44707;-95
2022/08/03 04:53:48;;;;;;;;;4.20;2.00;;;;;22.93;100.00;101103.88;6241923;22;44659;-95
2022/08/03 04:56:29;;;;;;;;;2.20;2.00;;;;;23.04;100.00;101100.75;6242837;22;44816;-94
2022/08/03 04:59:02;;;;;;;;;1.40;1.40;;;;;23.21;100.00;101098.81;6239735;22;45076;-95
2022/08/03 05:01:42;;;;;;;;;5.00;4.00;;;;;23.36;100.00;101105.22;6217299;22;44701;-95
2022/08/03 05:04:13;;;;;;;;;3.60;3.60;;;;;23.53;100.00;101106.78;6239940;22;44845;-95
2022/08/03 05:06:51;;;;;;;;;3.60;3.00;;;;;23.72;100.00;101105.53;6241466;22;44852;-95
2022/08/03 05:09:20;;;;;;;;;3.60;2.00;;;;;23.91;100.00;101106.09;6239124;22;47024;-95
2022/08/03 05:12:01;;;;;;;;;2.00;2.00;;;;;24.06;100.00;101113.25;6242126;22;44712;-96
2022/08/03 05:14:32;;;;;;;;;9.00;2.00;;;;;24.14;100.00;101103.38;6240616;22;44678;-95
2022/08/03 05:22:30;;;;;;;;;4.60;2.80;;;;;24.68;100.00;101119.53;6209721;22;44834;-93
2022/08/03 05:24:57;;;;;;;;;0.00;0.00;;;;;24.80;100.00;101118.91;6244846;22;44778;-93
2022/08/03 05:27:23;;;;;;;;;4.40;3.00;;;;;25.03;100.00;101113.34;6216778;22;44735;-94
2022/08/03 05:29:52;;;;;;;;;8.00;1.75;;;;;25.23;100.00;101123.66;6215680;22;45212;-93
2022/08/03 05:32:19;;;;;;;;;2.00;2.00;;;;;25.41;100.00;101113.25;6215806;22;44665;-93
2022/08/03 05:34:45;;;;;;;;;4.40;3.20;;;;;25.56;100.00;101121.38;6241980;22;44742;-93
2022/08/03 05:37:11;;;;;;;;;2.75;2.25;;;;;25.71;100.00;101122.16;6215620;22;44813;-93
2022/08/03 05:39:37;;;;;;;;;4.00;2.00;;;;;25.86;100.00;101114.81;6212012;22;45149;-94
2022/08/03 05:42:03;;;;;;;;;2.20;2.20;;;;;26.02;100.00;101119.19;6206724;22;44674;-94
2022/08/03 05:44:31;;;;;;;;;2.00;2.00;;;;;26.17;100.00;101121.84;6208401;22;44700;-94
2022/08/03 05:47:06;;;;;;;;;6.60;3.60;;;;;26.28;100.00;101110.41;6203891;22;44902;-95
2022/08/03 05:49:32;;;;;;;;;3.00;3.00;;;;;26.46;100.00;101120.03;6201790;22;45080;-93
2022/08/03 05:51:57;;;;;;;;;3.00;3.00;;;;;26.63;100.00;101124.13;6198963;22;44780;-94
2022/08/03 05:54:23;;;;;;;;;2.00;2.00;;;;;26.78;100.00;101121.28;6198910;22;44779;-93
2022/08/03 05:57:38;;;;;;;;;4.50;2.75;;;;;26.97;100.00;101119.72;6201347;22;44830;-94
2022/08/03 06:12:05;;;;;;;;;5.00;3.00;;;;;27.82;100.00;101129.38;6203194;22;46131;-94
2022/08/03 06:14:34;;;;;;;;;3.00;3.00;;;;;27.93;100.00;101126.88;6222585;22;44555;-94
2022/08/03 06:17:00;;;;;;;;;9.40;8.20;;;;;28.10;100.00;101131.94;6202808;22;44646;-96
2022/08/03 06:19:35;;;;;;;;;6.00;6.00;;;;;28.25;100.00;101129.84;6199739;22;44865;-95
2022/08/03 06:22:20;;;;;;;;;3.00;3.00;;;;;28.36;100.00;101123.78;6153287;22;46741;-96
2022/08/03 06:24:47;;;;;;;;;4.00;3.20;;;;;28.51;100.00;101122.72;6178863;22;44794;-95
2022/08/03 06:27:13;;;;;;;;;3.40;2.00;;;;;28.68;100.00;101121.25;6207239;22;44693;-95
2022/08/03 06:29:40;;;;;;;;;4.20;3.40;;;;;28.80;100.00;101121.44;6234872;22;44793;-94
2022/08/03 06:32:06;;;;;;;;;6.80;3.20;;;;;28.90;100.00;101119.09;6183063;22;46715;-94
2022/08/03 06:34:32;;;;;;;;;2.75;2.75;;;;;28.99;100.00;101119.75;6213425;22;44699;-95
2022/08/03 06:36:57;;;;;;;;;4.75;4.75;;;;;29.14;100.00;101126.63;6212085;22;44664;-94
2022/08/03 06:39:29;;;;;;;;;3.00;3.00;;;;;29.29;100.00;101126.38;6212451;22;45134;-95
2022/08/03 06:42:00;;;;;;;;;4.40;3.00;;;;;29.41;100.00;101129.28;6230587;22;44949;-94
2022/08/03 06:44:25;;;;;;;;;5.20;3.80;;;;;29.39;100.00;101132.22;6171100;22;44790;-94
2022/08/03 06:46:55;;;;;;;;;4.00;4.00;;;;;29.45;100.00;101128.63;6172215;22;44751;-93
2022/08/03 06:49:24;;;;;;;;;3.80;3.80;;;;;29.59;100.00;101125.84;6208408;22;44805;-93
2022/08/03 06:51:52;;;;;;;;;4.00;4.00;;;;;29.73;100.00;101130.19;6185588;22;45352;-93
2022/08/03 06:54:23;;;;;;;;;5.20;4.00;;;;;29.66;100.00;101130.22;6206351;22;44715;-93
2022/08/03 06:56:54;;;;;;;;;4.20;3.40;;;;;29.78;100.00;101133.09;6207060;22;44726;-95
2022/08/03 06:59:22;;;;;;;;;2.80;2.80;;;;;29.92;100.00;101137.44;6183703;22;44857;-96
2022/08/03 07:01:48;;;;;;;;;4.80;4.80;;;;;29.86;100.00;101138.31;6204776;22;46695;-96
2022/08/03 07:04:17;;;;;;;;;4.75;4.00;;;;;29.93;100.00;101135.53;6207148;22;44734;-95
2022/08/03 07:07:10;;;;;;;;;4.00;4.00;;;;;29.98;100.00;101140.34;6178645;22;44811;-95
2022/08/03 07:12:40;;;;;;;;;6.40;3.60;;;;;30.20;100.00;101128.84;6194959;22;46943;-94
2022/08/03 07:15:12;;;;;;;;;4.20;4.20;;;;;30.27;100.00;101133.44;6241889;22;44708;-95
2022/08/03 07:17:53;;;;;;;;;4.80;3.20;;;;;30.33;100.00;101138.03;6213554;22;44721;-96
2022/08/03 07:20:23;;;;;;;;;4.00;2.00;;;;;30.26;100.00;101142.72;6208344;22;44929;-95
2022/08/03 07:22:50;;;;;;;;;5.60;5.20;;;;;30.21;100.00;101136.00;6212888;22;45087;-96
2022/08/03 07:25:16;;;;;;;;;7.00;4.80;;;;;30.29;100.00;101129.41;6207782;22;44741;-95
2022/08/03 07:27:46;;;;;;;;;5.60;4.00;;;;;30.31;100.00;101132.75;6223458;22;44702;-93
2022/08/03 07:30:17;;;;;;;;;3.40;3.20;;;;;30.32;100.00;101131.72;6240375;22;44909;-93
2022/08/03 07:32:45;;;;;;;;;4.60;3.20;;;;;30.34;100.00;101126.00;6216385;22;45179;-92
2022/08/03 07:35:13;;;;;;;;;4.80;3.60;;;;;30.25;100.00;101124.59;6239142;22;44680;-94
2022/08/03 07:37:39;;;;;;;;;3.20;3.20;;;;;30.16;100.00;101132.25;6208313;22;44722;-93
2022/08/03 07:40:06;;;;;;;;;5.50;5.50;;;;;30.05;100.00;101125.56;6206302;22;44809;-93
2022/08/03 07:42:33;;;;;;;;;4.80;4.00;;;;;30.02;100.00;101131.47;6229257;22;45069;-94
2022/08/03 07:44:59;;;;;;;;;6.00;4.20;;;;;29.98;100.00;101132.13;6231016;22;44588;-92
2022/08/03 07:47:27;;;;;;;;;5.00;4.00;;;;;29.86;100.00;101130.09;6161369;22;45169;-92
2022/08/03 07:49:53;;;;;;;;;3.60;3.60;;;;;29.74;100.00;101133.75;6235662;22;44764;-91
2022/08/03 07:55:07;;;;;;;;;4.80;4.60;;;;;29.70;100.00;101131.47;6225225;22;44573;-92
2022/08/03 07:57:35;;;;;;;;;4.60;4.60;;;;;29.77;100.00;101128.69;6225038;22;44755;-93
2022/08/03 08:00:03;;;;;;;;;7.20;4.00;;;;;29.85;100.00;101136.66;6203042;22;44846;-92
2022/08/03 08:02:28;;;;;;;;;2.80;2.80;;;;;29.88;100.00;101135.34;6255873;22;45221;-93
2022/08/03 08:04:54;;;;;;;;;3.80;3.80;;;;;29.90;99.93;101127.78;6229276;22;44582;-92
2022/08/03 08:07:22;;;;;;;;;5.75;5.75;;;;;29.94;99.72;101134.50;6232545;22;44855;-93
2022/08/03 08:09:48;;;;;;;;;5.20;3.80;;;;;29.98;100.00;101126.66;6230595;22;44826;-93
2022/08/03 08:12:13;;;;;;;;;3.25;3.25;;;;;30.07;99.92;101131.66;6199595;22;45038;-92
2022/08/03 08:14:40;;;;;;;;;12.00;8.75;;;;;30.19;98.61;101129.91;6227557;22;44740;-92
2022/08/03 08:17:06;;;;;;;;;6.80;5.60;;;;;30.26;100.00;101132.59;6227453;22;44718;-92
2022/08/03 08:19:31;;;;;;;;;5.50;3.75;;;;;30.35;98.40;101122.19;6228554;22;45004;-92
2022/08/03 08:25:19;;;;;;;;;9.00;8.40;;;;;30.57;96.34;101119.91;6234561;22;44750;-93
2022/08/03 08:27:49;;;;;;;;;6.00;4.50;;;;;30.65;96.93;101125.06;6232648;22;44862;-92
2022/08/03 08:30:19;;;;;;;;;3.40;3.20;;;;;30.66;95.34;101116.66;6228329;22;44825;-95
2022/08/03 08:32:45;;;;;;;;;5.80;5.80;;;;;30.78;94.72;101124.16;6232396;22;45216;-94
2022/08/03 08:35:13;;;;;;;;;6.50;5.25;;;;;30.87;93.71;101122.78;6234083;22;45134;-93
2022/08/03 08:37:40;;;;;;;;;4.00;4.00;;;;;30.92;91.02;101112.81;6195763;22;44582;-93
2022/08/03 08:40:10;;;;;;;;;5.00;5.00;;;;;30.91;91.65;101126.75;6217904;22;44742;-95
2022/08/03 08:45:10;;;;;;;;;4.00;4.00;;;;;31.04;91.46;101112.88;6191017;23;44856;-95
2022/08/03 08:47:45;;;;;;;;;4.25;3.75;;;;;31.08;91.04;101116.84;6167156;23;44754;-95
2022/08/03 08:50:12;;;;;;;;;3.60;3.60;;;;;31.18;90.86;101113.56;6169271;23;44834;-94
2022/08/03 08:52:41;;;;;;;;;3.60;3.60;;;;;31.30;89.41;101119.16;6170559;23;46598;-94
2022/08/03 08:55:09;;;;;;;;;3.00;3.00;;;;;31.38;88.99;101110.59;6194490;23;44627;-93
2022/08/03 08:57:37;;;;;;;;;3.40;3.00;;;;;31.48;87.73;101114.47;6178134;23;44606;-93
2022/08/03 09:00:10;;;;;;;;;6.00;4.20;;;;;31.56;86.97;101117.97;6183912;23;44810;-90
2022/08/03 09:02:36;;;;;;;;;4.40;3.00;;;;;31.61;86.42;101112.59;6181532;22;45322;-92
2022/08/03 09:05:02;;;;;;;;;2.50;2.50;;;;;31.67;86.23;101108.91;6182992;22;46484;-94
2022/08/03 09:07:28;;;;;;;;;3.40;3.40;;;;;31.76;85.49;101104.78;6221061;22;44648;-94
2022/08/03 09:15:37;;;;;;;;;3.60;2.00;;;;;31.75;82.13;101100.34;6182328;22;45050;-93
2022/08/03 09:18:04;;;;;;;;;4.20;4.20;;;;;31.70;82.12;101097.47;6232227;22;44655;-92
2022/08/03 09:20:33;;;;;;;;;5.00;5.00;;;;;31.81;82.40;101096.66;6206248;22;44957;-93
2022/08/03 09:23:00;;;;;;;;;5.40;5.40;;;;;31.91;81.17;101102.50;6205615;22;45230;-92
2022/08/03 09:25:40;;;;;;;;;3.40;3.40;;;;;31.95;81.39;101100.09;6206962;22;44715;-93
2022/08/03 09:28:14;;;;;;;;;5.20;4.80;;;;;32.07;81.37;101098.22;6209511;22;44604;-93
2022/08/03 09:30:42;;;;;;;;;6.40;5.00;;;;;32.18;81.53;101093.81;6199118;22;44877;-89
2022/08/03 09:33:15;;;;;;;;;4.80;4.00;;;;;32.19;80.47;101095.47;6231086;22;45178;-91
2022/08/03 09:35:49;;;;;;;;;3.40;3.40;;;;;32.13;80.12;101091.75;6239091;22;44552;-91
2022/08/03 09:38:16;;;;;;;;;3.00;3.00;;;;;32.22;80.16;101092.25;6207440;22;44644;-90
2022/08/03 09:40:43;;;;;;;;;4.00;4.00;;;;;32.19;80.59;101092.72;6228248;22;45197;-90
2022/08/03 09:43:09;;;;;;;;;4.20;2.80;;;;;32.32;80.48;101092.50;6222607;22;44936;-88
2022/08/03 09:45:36;;;;;;;;;8.25;3.75;;;;;32.43;80.80;101099.09;6223471;22;44710;-89
2022/08/03 09:48:23;;;;;;;;;4.20;3.80;;;;;32.46;78.89;101095.91;6221741;22;44715;-90
2022/08/03 09:50:53;;;;;;;;;4.40;3.20;;;;;32.51;81.08;101089.69;6222515;22;44814;-90
2022/08/03 09:53:19;;;;;;;;;6.40;3.40;;;;;32.49;76.36;101084.41;6234731;22;45083;-89
2022/08/03 09:55:55;;;;;;;;;3.20;3.20;;;;;32.48;76.48;101089.06;6234658;22;44783;-89
2022/08/03 09:58:21;;;;;;;;;4.00;4.00;;;;;32.35;74.97;101085.66;6225267;22;44764;-89
2022/08/03 10:00:57;;;;;;;;;4.00;4.00;;;;;32.14;75.69;101078.84;6220976;22;44798;-90
2022/08/03 10:03:23;;;;;;;;;3.00;3.00;;;;;32.18;77.31;101082.81;6219332;22;45261;-89
2022/08/03 10:05:49;;;;;;;;;5.80;3.80;;;;;32.30;80.63;101075.41;6189000;22;44589;-90
2022/08/03 10:08:17;;;;;;;;;6.40;4.40;;;;;32.40;78.70;101072.94;6217234;22;44628;-90
2022/08/03 10:10:45;;;;;;;;;4.00;4.00;;;;;32.54;76.45;101075.41;6190203;22;44934;-89
2022/08/03 10:13:14;;;;;;;;;4.20;2.60;;;;;32.71;75.36;101076.38;6221318;22;45106;-88
2022/08/03 10:15:40;;;;;;;;;5.80;3.00;;;;;32.78;73.80;101063.31;6224651;22;44732;-91
2022/08/03 10:18:07;;;;;;;;;2.20;2.20;;;;;32.83;73.34;101060.69;6199229;22;44677;-92
2022/08/03 10:20:48;;;;;;;;;4.00;4.00;;;;;32.97;72.67;101078.63;6194321;22;44913;-92
2022/08/03 10:23:18;;;;;;;;;4.80;3.00;;;;;33.02;72.91;101061.38;6199024;22;44991;-92
2022/08/03 10:25:47;;;;;;;;;4.80;4.00;;;;;33.06;72.61;101068.06;6201050;22;44584;-92
2022/08/03 10:28:18;;;;;;;;;3.00;3.00;;;;;33.11;72.06;101059.09;6228772;22;44754;-91
2022/08/03 10:30:49;;;;;;;;;4.00;3.60;;;;;33.18;71.95;101059.78;6196416;22;44832;-95
2022/08/03 10:33:43;;;;;;;;;2.80;2.20;;;;;33.20;68.14;101058.44;6206311;22;44937;-95
2022/08/03 10:36:17;;;;;;;;;3.20;2.00;;;;;33.18;67.60;101051.53;6200751;22;44737;-94
2022/08/03 10:38:57;;;;;;;;;1.40;1.40;;;;;33.21;68.44;101053.78;6194116;22;44758;-94
2022/08/03 10:41:45;;;;;;;;;5.80;3.40;;;;;33.19;68.57;101054.03;6228400;22;44757;-95
2022/08/03 10:44:16;;;;;;;;;2.60;2.60;;;;;33.23;70.95;101046.97;6200083;22;45608;-92
2022/08/03 10:46:47;;;;;;;;;2.20;2.20;;;;;33.32;68.85;101036.38;6194964;22;44624;-92
2022/08/03 10:49:14;;;;;;;;;1.20;1.20;;;;;33.42;68.52;101038.50;6199894;22;44695;-92
2022/08/03 10:51:45;;;;;;;;;2.00;2.00;;;;;33.49;69.77;101033.69;6197302;22;44907;-92
2022/08/03 10:57:49;;;;;;;;;2.00;1.00;;;;;33.66;67.68;101036.50;6222672;22;44705;-92
2022/08/03 11:05:47;;;;;;;;;2.80;2.80;;;;;33.85;66.76;101026.91;6141441;22;46267;-94
2022/08/03 11:08:39;;;;;;;;;3.60;3.60;;;;;33.81;65.13;101031.22;6198487;23;44626;-94
2022/08/03 11:11:18;;;;;;;;;3.20;3.20;;;;;33.73;64.17;101034.41;6169780;23;44867;-93
2022/08/03 11:14:03;;;;;;;;;2.00;2.00;;;;;33.81;61.90;101024.88;6176310;23;44750;-93
2022/08/03 11:16:54;;;;;;;;;2.00;2.00;;;;;33.79;60.08;101014.09;6203336;22;45455;-94
2022/08/03 11:19:26;;;;;;;;;1.00;1.00;;;;;33.83;61.43;101012.50;6165883;22;45035;-93
2022/08/03 11:21:54;;;;;;;;;2.20;2.00;;;;;33.88;61.96;101006.25;6231788;22;44764;-95
2022/08/03 11:27:23;;;;;;;;;4.00;3.00;;;;;34.06;63.09;101011.53;6199683;22;45128;-91
2022/08/03 11:30:01;;;;;;;;;2.80;2.40;;;;;34.18;61.40;101016.94;6188576;23;44584;-90
2022/08/03 11:32:47;;;;;;;;;3.20;2.00;;;;;34.17;57.54;101021.63;6191859;23;45166;-90
2022/08/03 11:35:20;;;;;;;;;2.00;2.00;;;;;33.89;57.49;101002.41;6192581;23;44735;-90
2022/08/03 11:38:18;;;;;;;;;4.00;2.40;;;;;33.93;57.78;101006.31;6194199;23;45161;-93
2022/08/03 11:40:52;;;;;;;;;2.00;2.00;;;;;33.93;60.25;100987.03;6075762;23;44769;-91
2022/08/03 11:43:50;;;;;;;;;2.40;2.40;;;;;34.13;60.88;100989.28;6078877;23;45374;-89
2022/08/03 11:46:22;;;;;;;;;2.40;2.40;;;;;34.25;58.61;100996.38;6098718;23;44816;-95
2022/08/03 11:48:49;;;;;;;;;2.60;2.60;;;;;34.38;59.82;100991.56;6097501;23;45041;-92
2022/08/03 11:51:22;;;;;;;;;2.80;2.80;;;;;34.43;57.73;100992.50;6099505;23;44776;-92
2022/08/03 11:54:02;;;;;;;;;2.00;2.00;;;;;34.54;59.39;100989.91;6107366;23;44752;-89
2022/08/03 11:56:55;;;;;;;;;4.00;3.60;;;;;34.64;58.57;101001.09;6112980;23;44729;-92
2022/08/03 12:02:11;;;;;;;;;25.80;21.20;;;;;34.54;58.42;100987.16;6205030;22;44890;-94
2022/08/03 12:10:35;;;;;;;;;1.00;1.00;;;;;34.86;56.49;100981.75;6230558;22;45132;-95
2022/08/03 12:13:04;;;;;;;;;4.80;4.20;;;;;35.01;54.64;100979.22;6197903;22;44768;-92
2022/08/03 12:18:20;;;;;;;;;2.80;2.80;;;;;35.13;55.04;100979.88;6170833;22;44735;-95
2022/08/03 12:20:47;;;;;;;;;3.00;3.00;;;;;35.23;55.62;100974.44;6191924;22;45086;-94
2022/08/03 12:23:13;;;;;;;;;2.00;2.00;;;;;35.32;54.53;100969.28;6219551;22;44602;-94
2022/08/03 12:25:41;;;;;;;;;3.25;2.00;;;;;35.35;52.72;100984.53;6193935;22;44616;-94
2022/08/03 12:28:23;;;;;;;;;2.00;2.00;;;;;35.41;52.86;100984.31;6224745;22;44776;-93
2022/08/03 12:31:10;;;;;;;;;2.40;2.20;;;;;35.45;51.52;100979.97;6205885;22;45235;-95
2022/08/03 12:34:12;;;;;;;;;4.00;2.40;;;;;35.45;51.03;100974.44;6200885;22;44565;-95
2022/08/03 12:48:39;;;;;;;;;6.20;4.60;;;;;35.21;51.02;100960.09;6188340;22;44916;-90
2022/08/03 12:51:18;;;;;;;;;6.00;4.80;;;;;35.09;48.05;100964.91;6161306;23;44762;-93
2022/08/03 12:53:53;;;;;;;;;3.20;3.00;;;;;35.19;49.17;100970.53;6149354;23;45153;-90
2022/08/03 12:56:19;;;;;;;;;2.40;2.00;;;;;35.45;51.10;100963.38;6189932;23;45068;-90
2022/08/03 12:58:46;;;;;;;;;1.80;1.80;;;;;35.59;47.59;100965.69;6170060;23;44802;-93
2022/08/03 13:01:13;;;;;;;;;3.00;3.00;;;;;35.75;49.13;100960.03;6182032;23;44921;-90
2022/08/03 13:03:47;;;;;;;;;1.60;1.60;;;;;35.81;48.50;100951.78;6196653;22;45218;-93
2022/08/03 13:06:16;;;;;;;;;9.00;8.00;;;;;35.85;47.70;100955.69;6209387;22;44686;-92
2022/08/03 13:08:46;;;;;;;;;3.60;3.00;;;;;35.90;49.57;100950.19;6178554;23;44621;-93
2022/08/03 13:11:27;;;;;;;;;2.00;2.00;;;;;36.12;48.79;100950.06;6200673;23;44804;-92
2022/08/03 13:13:58;;;;;;;;;4.40;4.20;;;;;36.32;48.00;100958.50;6163148;23;45110;-93
2022/08/03 13:16:24;;;;;;;;;2.00;2.00;;;;;36.58;49.11;100953.09;6166861;23;44792;-94
2022/08/03 13:19:14;;;;;;;;;3.00;2.80;;;;;36.43;40.46;100946.38;6170234;23;44798;-94
2022/08/03 13:21:40;;;;;;;;;1.00;1.00;;;;;36.53;40.97;100951.13;6169198;23;44893;-91
2022/08/03 13:24:06;;;;;;;;;2.25;1.25;;;;;36.97;41.19;100951.59;6165418;23;46628;-92
2022/08/03 13:26:33;;;;;;;;;2.50;1.00;;;;;37.40;41.21;100945.88;6166175;23;44746;-92
2022/08/03 13:28:58;;;;;;;;;3.00;2.00;;;;;37.84;42.97;100931.44;6196246;23;44778;-92
2022/08/03 13:31:28;;;;;;;;;4.00;2.50;;;;;38.24;45.97;100936.88;6165958;23;44878;-92
2022/08/03 13:33:54;;;;;;;;;2.00;2.00;;;;;38.46;41.89;100930.19;6142895;23;45061;-92